Flight Track Log - Related Links

Times and Time Zones

All times are in EDT time to prevent confusion due to time zone crossing. See the AAL94 flight status page for this flight to view local times or setup timezone preferences in your user account.

Time Position Orientation Groundspeed Altitude Reporting Facility
EDT Latitude Longitude Course Direction KTS MPH feet Rate Location/Type
Sun 07:14:12 PM 40.6190 -73.7820 207° Southwest 164 189 100  Level FlightAware ADS-B
Sun 07:14:42 PM 40.5980 -73.7990 212° Southwest 187 215 1,100 1,800 Climbing FlightAware ADS-B
Sun 07:14:52 PM 40.5890 -73.8030 199° South 203 234 1,300 1,200 Climbing FlightAware ADS-B
Sun 07:15:07 PM 40.5750 -73.8000 171° South 217 250 1,600 1,600 Climbing FlightAware ADS-B
Sun 07:15:22 PM 40.5630 -73.7870 141° Southeast 223 257 2,100 2,000 Climbing FlightAware ADS-B
Sun 07:15:52 PM 40.5460 -73.7500 121° Southeast 251 289 3,100 1,855 Climbing FlightAware ADS-B
Sun 07:16:17 PM 40.5330 -73.7170 117° Southeast 259 298 3,800 1,200 Climbing FlightAware ADS-B
Sun 07:16:47 PM 40.5150 -73.6750 119° Southeast 262 302 4,200 655 Climbing FlightAware ADS-B
Sun 07:17:12 PM 40.5000 -73.6380 118° Southeast 259 298 4,400 218 Climbing FlightAware ADS-B
Sun 07:17:42 PM 40.4820 -73.5960 119° Southeast 260 299 4,400  Level FlightAware ADS-B
Sun 07:18:07 PM 40.4680 -73.5640 120° Southeast 261 300 4,400  Level FlightAware ADS-B
Sun 07:18:37 PM 40.4510 -73.5200 117° Southeast 257 296 4,400 1,100 Level FlightAware ADS-B
Sun 07:19:07 PM 40.4550 -73.4750 83° East 254 292 5,500 2,618 Climbing FlightAware ADS-B
Sun 07:19:32 PM 40.4620 -73.4360 77° East 257 296 6,800 3,000 Climbing FlightAware ADS-B
Sun 07:19:43 PM 40.4659 -73.4163 75° East 265 305 7,300 2,634 Climbing FlightAware ADS-B
Sun 07:20:13 PM 40.4736 -73.3696 78° East 273 314 8,600 2,348 Climbing FlightAware ADS-B
Sun 07:20:29 PM 40.4726 -73.3432 93° East 280 322 9,100 2,438 Climbing FlightAware ADS-B
Sun 07:20:45 PM 40.4675 -73.3145 103° East 286 329 9,900 2,043 Climbing FlightAware ADS-B
Sun 07:21:16 PM 40.4531 -73.2630 110° East 314 361 10,700 1,164 Climbing FlightAware ADS-B
Sun 07:21:52 PM 40.4360 -73.1960 109° East 354 407 11,200 1,792 Climbing FlightAware ADS-B
Sun 07:22:33 PM 40.4127 -73.1070 109° East 321 369 13,000 2,385 Climbing FlightAware ADS-B
Sun 07:23:10 PM 40.3926 -73.0256 108° East 381 438 14,300 2,027 Climbing FlightAware ADS-B
Sun 07:23:47 PM 40.3860 -72.9480 96° East 394 453 15,500 2,192 Climbing FlightAware ADS-B
Sun 07:24:02 PM 40.3950 -72.9100 73° East 395 455 16,200 2,318 Climbing FlightAware ADS-B
Sun 07:24:31 PM 40.4154 -72.8416 69° East 405 466 17,200 2,066 Climbing FlightAware ADS-B
Sun 07:25:03 PM 40.4294 -72.7641 77° East 406 467 18,300 1,714 Climbing FlightAware ADS-B
Sun 07:25:34 PM 40.4453 -72.6893 74° East 430 495 19,000 1,545 Climbing FlightAware ADS-B
Sun 07:26:09 PM 40.4651 -72.5989 74° East 444 511 20,000 1,760 Climbing FlightAware ADS-B
Sun 07:26:49 PM 40.4884 -72.4931 74° East 453 521 21,200 1,726 Climbing FlightAware ADS-B
Sun 07:27:22 PM 40.5060 -72.4120 74° East 460 529 22,100 1,612 Climbing FlightAware ADS-B
Sun 07:27:56 PM 40.5277 -72.3146 74° East 469 540 23,000 1,575 Climbing FlightAware ADS-B
Sun 07:28:42 PM 40.5558 -72.1853 74° East 480 552 24,200 1,485 Climbing FlightAware ADS-B
Sun 07:29:37 PM 40.5870 -72.0430 74° East 488 562 25,500 1,440 Climbing FlightAware ADS-B
Sun 07:30:22 PM 40.6170 -71.9040 74° East 499 574 26,600 825 Climbing FlightAware ADS-B
Sun 07:30:57 PM 40.6360 -71.8140 74° East 499 574 26,600  Level FlightAware ADS-B
Sun 07:31:37 PM 40.6580 -71.7150 74° East 499 574 26,600  Level FlightAware ADS-B
Sun 07:32:17 PM 40.6790 -71.6160 74° East 499 574 26,600  Level FlightAware ADS-B
Sun 07:33:07 PM 40.7070 -71.4910 74° East 499 574 26,600  Level FlightAware ADS-B
Sun 07:33:47 PM 40.7280 -71.3920 74° East 499 574 26,600 1,990 Level FlightAware ADS-B
Sun 07:35:52 PM 40.9130 -70.9400 61° Northeast 32,800 2,473 Climbing FlightAware ADS-B
Sun 07:36:32 PM 40.9750 -70.8400 51° Northeast 546 628 33,400 1,020 Climbing FlightAware ADS-B
Sun 07:37:32 PM 41.0730 -70.6790 51° Northeast 546 628 34,500 960 Climbing FlightAware ADS-B
Sun 07:38:12 PM 41.1330 -70.5800 51° Northeast 548 631 35,000 353 Climbing FlightAware ADS-B
Sun 07:38:57 PM 41.2100 -70.4550 51° Northeast 546 628 35,000  Level FlightAware ADS-B
Sun 07:39:37 PM 41.2630 -70.3670 51° Northeast 546 628 35,000  Level FlightAware ADS-B
Sun 07:40:17 PM 41.3320 -70.2540 51° Northeast 543 625 35,000  Level FlightAware ADS-B
Sun 07:40:57 PM 41.3990 -70.1430 51° Northeast 544 626 35,000  Level FlightAware ADS-B
Sun 07:41:37 PM 41.4630 -70.0360 51° Northeast 554 638 35,000  Level FlightAware ADS-B
Sun 07:42:22 PM 41.5300 -69.9190 53° Northeast 553 636 35,000  Level FlightAware ADS-B
Sun 07:43:07 PM 41.5980 -69.8000 53° Northeast 554 638 35,000  Level FlightAware ADS-B
Sun 07:44:02 PM 41.6880 -69.6430 52° Northeast 556 640 35,000  Level FlightAware ADS-B
Sun 07:44:47 PM 41.7570 -69.5220 53° Northeast 555 639 35,000  Level FlightAware ADS-B
Sun 07:45:27 PM 41.8160 -69.4190 52° Northeast 555 639 35,000  Level FlightAware ADS-B
Sun 07:46:12 PM 41.8870 -69.2930 53° Northeast 556 640 35,000  Level FlightAware ADS-B
Sun 07:46:47 PM 41.9400 -69.1990 53° Northeast 555 639 35,000  Level FlightAware ADS-B
Sun 07:47:32 PM 42.0130 -69.0710 52° Northeast 550 633 35,000  Level FlightAware ADS-B
Sun 07:48:27 PM 42.1000 -68.9160 53° Northeast 550 633 35,000  Level FlightAware ADS-B
Sun 07:49:12 PM 42.1670 -68.7970 53° Northeast 549 632 35,000  Level FlightAware ADS-B
Sun 07:49:47 PM 42.2170 -68.7050 54° Northeast 549 632 35,000  Level FlightAware ADS-B
Sun 07:50:27 PM 42.2830 -68.5870 53° Northeast 551 634 35,000  Level FlightAware ADS-B
Sun 07:51:17 PM 42.3610 -68.4460 53° Northeast 552 635 35,000  Level FlightAware ADS-B
Sun 07:52:12 PM 42.4420 -68.2970 54° Northeast 551 634 35,000  Level FlightAware ADS-B
Sun 07:52:52 PM 42.5060 -68.1810 53° Northeast 550 633 35,000  Level FlightAware ADS-B
Sun 07:53:37 PM 42.5690 -68.0650 54° Northeast 550 633 35,000  Level FlightAware ADS-B
Sun 07:54:17 PM 42.6310 -67.9500 54° Northeast 550 633 35,000  Level FlightAware ADS-B
Sun 07:54:57 PM 42.6820 -67.8540 54° Northeast 550 633 35,000  Level FlightAware ADS-B
Sun 07:55:37 PM 42.7330 -67.7590 54° Northeast 550 633 35,000  Level FlightAware ADS-B
Sun 07:56:27 PM 42.7970 -67.6400 54° Northeast 550 633 35,000  Level FlightAware ADS-B
Sun 07:57:07 PM 42.8470 -67.5450 54° Northeast 550 633 35,000  Level FlightAware ADS-B
Sun 07:57:47 PM 42.8980 -67.4490 54° Northeast 550 633 35,000  Level FlightAware ADS-B
Sun 07:58:32 PM 43.0200 -67.2250 53° Northeast 553 636 35,000  Level FlightAware ADS-B
Sun 07:59:12 PM 43.0800 -67.1120 54° Northeast 553 636 35,000  Level FlightAware ADS-B
Sun 07:59:57 PM 43.1440 -66.9900 54° Northeast 553 636 35,000  Level FlightAware ADS-B
Sun 08:00:47 PM 43.2170 -66.8410 56° Northeast 555 639 35,000  Level FlightAware ADS-B
Sun 08:01:32 PM 43.2800 -66.6990 59° Northeast 553 636 35,000  Level FlightAware ADS-B
Sun 08:02:17 PM 43.3370 -66.5750 58° Northeast 554 638 35,000  Level FlightAware ADS-B
Sun 08:02:52 PM 43.3890 -66.4610 58° Northeast 554 638 35,000  Level FlightAware ADS-B
Sun 08:03:37 PM 43.4520 -66.3250 57° Northeast 554 638 35,000  Level FlightAware ADS-B
Sun 08:04:22 PM 43.5160 -66.1870 57° Northeast 554 638 35,000  Level FlightAware ADS-B
Sun 08:05:02 PM 43.5720 -66.0650 58° Northeast 555 639 35,000  Level FlightAware ADS-B
Sun 08:05:47 PM 43.6340 -65.9280 58° Northeast 556 640 35,000  Level FlightAware ADS-B
Sun 08:06:27 PM 43.6890 -65.8060 58° Northeast 556 640 35,000  Level FlightAware ADS-B
Sun 08:07:07 PM 43.7440 -65.6830 58° Northeast 556 640 35,000  Level FlightAware ADS-B
Sun 08:07:52 PM 43.8050 -65.5470 58° Northeast 557 641 35,000  Level FlightAware ADS-B
Sun 08:09:42 PM 43.9500 -65.2210 58° Northeast 563 648 35,000  Level FlightAware ADS-B
Sun 08:10:52 PM 44.0450 -65.0050 58° Northeast 564 649 35,000  Level FlightAware ADS-B
Sun 08:12:07 PM 44.1460 -64.7730 59° Northeast 566 651 35,000  Level FlightAware ADS-B
Sun 08:12:47 PM 44.2060 -64.6360 59° Northeast 568 654 35,000  Level FlightAware ADS-B
Sun 08:13:27 PM 44.2600 -64.5110 59° Northeast 569 655 35,000  Level FlightAware ADS-B
Sun 08:14:12 PM 44.3190 -64.3740 59° Northeast 570 656 35,000  Level FlightAware ADS-B
Sun 08:14:52 PM 44.3750 -64.2410 59° Northeast 571 657 35,000  Level FlightAware ADS-B
Sun 08:15:32 PM 44.4280 -64.1160 59° Northeast 571 657 35,000  Level FlightAware ADS-B
Sun 08:16:17 PM 44.4880 -63.9740 59° Northeast 572 658 35,000  Level FlightAware ADS-B
Sun 08:16:57 PM 44.5410 -63.8500 59° Northeast 572 658 35,000  Level FlightAware ADS-B
Sun 08:17:42 PM 44.6050 -63.6980 59° Northeast 574 661 35,000  Level FlightAware ADS-B
Sun 08:18:22 PM 44.6570 -63.5720 60° Northeast 574 661 35,000  Level FlightAware ADS-B
Sun 08:19:32 PM 44.7420 -63.3670 60° Northeast 575 662 35,000  Level FlightAware ADS-B
Sun 08:20:12 PM 44.7960 -63.2340 60° Northeast 576 663 35,000  Level FlightAware ADS-B
Sun 08:20:57 PM 44.8560 -63.0870 60° Northeast 577 664 35,000  Level FlightAware ADS-B
Sun 08:21:32 PM 44.9000 -62.9820 59° Northeast 577 664 35,000  Level FlightAware ADS-B
Sun 08:22:22 PM 44.9560 -62.8430 60° Northeast 577 664 35,000  Level FlightAware ADS-B
Sun 08:23:02 PM 45.0020 -62.7320 60° Northeast 577 664 35,000  Level FlightAware ADS-B
Sun 08:23:42 PM 45.0470 -62.6210 60° Northeast 577 664 35,000  Level FlightAware ADS-B
Sun 08:24:22 PM 45.0920 -62.5100 60° Northeast 577 664 35,000  Level FlightAware ADS-B
Sun 08:25:02 PM 45.1380 -62.3980 60° Northeast 577 664 35,000  Level FlightAware ADS-B
Sun 08:25:52 PM 45.1940 -62.2590 60° Northeast 577 664 35,000  Level FlightAware ADS-B
Sun 08:26:32 PM 45.2400 -62.1470 60° Northeast 577 664 35,000  Level FlightAware ADS-B
Sun 08:27:12 PM 45.2850 -62.0350 60° Northeast 577 664 35,000  Level FlightAware ADS-B
Sun 08:27:52 PM 45.3310 -61.9240 59° Northeast 577 664 35,000  Level FlightAware ADS-B
Sun 08:28:32 PM 45.3760 -61.8120 60° Northeast 577 664 35,000  Level FlightAware ADS-B
Sun 08:29:22 PM 45.4330 -61.6720 60° Northeast 577 664 35,000  Level FlightAware ADS-B
Sun 08:30:02 PM 45.4780 -61.5600 60° Northeast 577 664 35,000  Level FlightAware ADS-B
Sun 08:30:42 PM 45.5230 -61.4480 60° Northeast 577 664 35,000 1,412 Level FlightAware ADS-B
Sun 08:31:27 PM 45.6690 -61.0210 64° Northeast 568 654 37,000 1,412 Climbing FlightAware ADS-B
Sun 08:32:07 PM 45.7190 -60.8880 62° Northeast 568 654 37,000  Level FlightAware ADS-B
Sun 08:32:47 PM 45.7690 -60.7540 62° Northeast 568 654 37,000  Level FlightAware ADS-B
Sun 08:33:17 PM 45.8060 -60.6540 62° Northeast 569 655 37,000  Level FlightAware ADS-B
Sun 08:34:02 PM 45.8600 -60.5100 62° Northeast 568 654 37,000  Level FlightAware ADS-B
Sun 08:34:42 PM 45.9090 -60.3780 62° Northeast 567 652 37,000  Level FlightAware ADS-B
Sun 08:35:22 PM 45.9590 -60.2430 62° Northeast 566 651 37,000  Level FlightAware ADS-B
Sun 08:36:07 PM 46.0150 -60.0890 62° Northeast 565 650 37,000  Level FlightAware ADS-B
Sun 08:36:47 PM 46.0620 -59.9590 62° Northeast 565 650 37,000  Level FlightAware ADS-B
Sun 08:37:32 PM 46.1160 -59.8110 62° Northeast 564 649 37,000  Level FlightAware ADS-B
Sun 08:38:07 PM 46.1600 -59.6900 62° Northeast 563 648 37,000  Level FlightAware ADS-B
Sun 08:38:52 PM 46.2120 -59.5430 63° Northeast 564 649 37,000  Level FlightAware ADS-B
Sun 08:39:37 PM 46.2660 -59.3910 63° Northeast 565 650 37,000  Level FlightAware ADS-B
Sun 08:40:17 PM 46.3140 -59.2570 63° Northeast 565 650 37,000  Level FlightAware ADS-B
Sun 08:41:02 PM 46.3670 -59.1080 63° Northeast 566 651 37,000  Level FlightAware ADS-B
Sun 08:41:37 PM 46.4100 -58.9850 63° Northeast 566 651 37,000  Level FlightAware ADS-B
Sun 08:42:22 PM 46.4620 -58.8380 63° Northeast 567 652 37,000  Level FlightAware ADS-B
Sun 08:44:30 PM 46.6120 -58.4020 63° Northeast 569 655 37,000  Level FlightAware ADS-B
Sun 08:45:10 PM 46.6590 -58.2670 63° Northeast 569 655 37,000  Level FlightAware ADS-B
Sun 08:45:50 PM 46.7020 -58.1400 64° Northeast 568 654 37,000  Level FlightAware ADS-B
Sun 08:46:35 PM 46.7520 -57.9980 63° Northeast 568 654 37,000  Level FlightAware ADS-B
Sun 08:47:15 PM 46.7920 -57.8820 63° Northeast 568 654 37,000  Level FlightAware ADS-B
Sun 08:47:55 PM 46.8330 -57.7650 63° Northeast 568 654 37,000  Level FlightAware ADS-B
Sun 08:48:35 PM 46.8730 -57.6490 63° Northeast 568 654 37,000  Level FlightAware ADS-B
Sun 08:49:15 PM 46.9140 -57.5320 63° Northeast 568 654 37,000  Level FlightAware ADS-B
Sun 08:50:05 PM 46.9970 -57.2430 67° East 570 656 37,000  Level FlightAware ADS-B
Sun 08:50:45 PM 47.0410 -57.1010 66° East 570 656 37,000  Level FlightAware ADS-B
Sun 08:51:25 PM 47.0830 -56.9660 65° Northeast 570 656 37,000  Level FlightAware ADS-B
Sun 08:52:10 PM 47.1330 -56.8080 65° Northeast 569 655 37,000  Level FlightAware ADS-B
Sun 08:52:55 PM 47.1820 -56.6500 65° Northeast 567 652 37,000  Level FlightAware ADS-B
Sun 08:53:35 PM 47.2250 -56.5080 66° East 566 651 37,000  Level FlightAware ADS-B
Sun 08:54:15 PM 47.2670 -56.3720 65° Northeast 565 650 37,000  Level FlightAware ADS-B
Sun 08:55:00 PM 47.3150 -56.2170 65° Northeast 565 650 37,000  Level FlightAware ADS-B
Sun 08:55:40 PM 47.3530 -56.0990 65° Northeast 565 650 37,000  Level FlightAware ADS-B
Sun 08:56:20 PM 47.3900 -55.9800 65° Northeast 565 650 37,000  Level FlightAware ADS-B
Sun 08:57:05 PM 47.4480 -55.7740 67° East 564 649 37,000  Level FlightAware ADS-B
Sun 08:57:45 PM 47.4900 -55.6330 66° East 566 651 37,000  Level FlightAware ADS-B
Sun 08:58:30 PM 47.5370 -55.4740 66° East 566 651 37,000  Level FlightAware ADS-B
Sun 08:59:10 PM 47.5800 -55.3260 67° East 567 652 37,000  Level FlightAware ADS-B
Sun 08:59:55 PM 47.6250 -55.1710 67° East 568 654 37,000  Level FlightAware ADS-B
Sun 09:00:25 PM 47.6570 -55.0640 66° East 568 654 37,000  Level FlightAware ADS-B
Sun 09:01:00 PM 47.6920 -54.9400 67° East 567 652 37,000  Level FlightAware ADS-B
Sun 09:01:45 PM 47.7400 -54.7760 66° East 565 650 37,000  Level FlightAware ADS-B
Sun 09:02:25 PM 47.7800 -54.6340 67° East 565 650 37,000  Level FlightAware ADS-B
Sun 09:03:10 PM 47.8270 -54.4700 67° East 563 648 37,000  Level FlightAware ADS-B
Sun 09:03:50 PM 47.8670 -54.3290 67° East 558 642 37,000  Level FlightAware ADS-B
Sun 09:04:35 PM 47.9100 -54.1750 67° East 551 634 37,000  Level FlightAware ADS-B
Sun 09:05:15 PM 47.9500 -54.0320 67° East 552 635 37,000  Level FlightAware ADS-B
Sun 09:05:55 PM 47.9890 -53.8900 68° East 552 635 37,000  Level FlightAware ADS-B
Sun 09:06:40 PM 48.0320 -53.7340 68° East 556 640 37,000  Level FlightAware ADS-B
Sun 09:07:20 PM 48.0710 -53.5930 67° East 560 644 37,000  Level FlightAware ADS-B
Sun 09:08:05 PM 48.1170 -53.4250 68° East 564 649 37,000  Level FlightAware ADS-B
Sun 09:08:45 PM 48.1550 -53.2810 68° East 570 656 37,000  Level FlightAware ADS-B
Sun 09:09:25 PM 48.1950 -53.1330 68° East 576 663 37,000  Level FlightAware ADS-B
Sun 09:10:00 PM 48.2280 -53.0110 68° East 578 665 37,000  Level FlightAware ADS-B
Sun 09:10:45 PM 48.2740 -52.8370 68° East 579 666 37,000  Level FlightAware ADS-B
Sun 09:11:25 PM 48.3140 -52.6880 68° East 580 667 37,000  Level FlightAware ADS-B
Sun 09:12:05 PM 48.3530 -52.5380 69° East 580 667 37,000  Level FlightAware ADS-B
Sun 09:12:45 PM 48.3900 -52.3970 68° East 577 664 37,000  Level FlightAware ADS-B
Sun 09:13:25 PM 48.4300 -52.2400 69° East 577 664 37,000  Level FlightAware ADS-B
Sun 09:14:15 PM 48.4790 -52.0500 69° East 572 658 37,000  Level FlightAware ADS-B
Sun 09:15:10 PM 48.5310 -51.8480 69° East 568 654 37,000  Level FlightAware ADS-B
Sun 09:16:20 PM 48.5950 -51.5910 69° East 566 651 37,000  Level FlightAware ADS-B
Sun 09:17:15 PM 48.6430 -51.3980 69° East 565 650 37,000  Level FlightAware ADS-B
Sun 09:17:55 PM 48.6730 -51.2710 70° East 565 650 37,000  Level FlightAware ADS-B
Sun 09:18:40 PM 48.7250 -51.0690 69° East 564 649 37,000  Level FlightAware ADS-B
Sun 09:20:25 PM 48.8150 -50.6970 70° East 557 641 37,000  Level FlightAware ADS-B
Sun 09:21:10 PM 48.8550 -50.5300 70° East 553 636 37,000  Level FlightAware ADS-B
Sun 09:21:55 PM 48.8930 -50.3710 70° East 553 636 37,000  Level FlightAware ADS-B
Sun 09:22:30 PM 48.9200 -50.2520 71° East 553 636 37,000  Level FlightAware ADS-B
Sun 09:23:15 PM 48.9570 -50.0920 71° East 552 635 37,000  Level FlightAware ADS-B
Sun 09:23:55 PM 48.9860 -49.9670 70° East 552 635 37,000  Level FlightAware ADS-B
Sun 09:24:45 PM 49.0210 -49.8100 71° East 552 635 37,000  Level FlightAware ADS-B
Sun 09:25:25 PM 49.0490 -49.6850 71° East 552 635 37,000  Level FlightAware ADS-B
Sun 09:26:00 PM 49.0000 -50.0000 69° East 550 633 37,000  Level ETMS Enhanced Traffic Management System
Sun 09:26:05 PM 49.0770 -49.5600 71° East 552 635 37,000  Level FlightAware ADS-B
Sun 09:26:32 PM 49.1500 -49.2833 69° East 560 644 37,000  Level Gander Center
Sun 09:26:45 PM 49.1060 -49.4340 71° East 552 635 37,000  Level FlightAware ADS-B
Sun 09:27:25 PM 49.1340 -49.3090 71° East 552 635 37,000  Level FlightAware ADS-B
Sun 09:28:15 PM 49.1690 -49.1520 71° East 552 635 37,000  Level FlightAware ADS-B
Sun 09:28:55 PM 49.1970 -49.0270 71° East 552 635 37,000  Level FlightAware ADS-B
Sun 09:29:35 PM 49.2260 -48.9010 71° East 552 635 37,000  Level FlightAware ADS-B
Sun 09:30:15 PM 49.2540 -48.7750 71° East 552 635 37,000  Level FlightAware ADS-B
Sun 09:30:55 PM 49.2820 -48.6490 71° East 552 635 37,000  Level FlightAware ADS-B
Sun 09:31:45 PM 49.3180 -48.4920 69° East 552 635 37,000  Level FlightAware ADS-B
Sun 09:32:25 PM 49.3460 -48.3660 71° East 552 635 37,000  Level FlightAware ADS-B
Sun 09:32:40 PM 49.4667 -47.9167 71° East 550 633 37,000  Level Gander Center
Sun 09:33:32 PM 49.5167 -47.7333 67° East 560 644 37,000  Level Gander Center
Sun 09:34:40 PM 49.5667 -47.4667 74° East 550 633 37,000  Level Gander Center
Sun 09:35:32 PM 49.6167 -47.2667 69° East 550 633 37,000  Level Gander Center
Sun 09:37:00 PM 49.6774 -46.9985 71° East  Level FlightAware Approximate
Sun 09:44:00 PM 49.9858 -45.5800 71° East  Level FlightAware Approximate
Sun 09:45:00 PM 50.0285 -45.3758 72° East  Level FlightAware Approximate
Sun 09:46:00 PM 50.0708 -45.1714 72° East  Level FlightAware Approximate
Sun 09:47:00 PM 50.1127 -44.9665 72° East  Level FlightAware Approximate
Sun 09:48:00 PM 50.1542 -44.7613 72° East  Level FlightAware Approximate
Sun 09:49:00 PM 50.1954 -44.5558 73° East  Level FlightAware Approximate
Sun 09:50:00 PM 50.2363 -44.3499 73° East  Level FlightAware Approximate
Sun 09:51:00 PM 50.2767 -44.1436 73° East  Level FlightAware Approximate
Sun 09:52:00 PM 50.3169 -43.9370 73° East  Level FlightAware Approximate
Sun 09:53:00 PM 50.3566 -43.7300 73° East  Level FlightAware Approximate
Sun 09:54:00 PM 50.3960 -43.5227 73° East  Level FlightAware Approximate
Sun 09:55:00 PM 50.4350 -43.3151 73° East  Level FlightAware Approximate
Sun 09:56:00 PM 50.4736 -43.1071 74° East  Level FlightAware Approximate
Sun 09:57:00 PM 50.5119 -42.8988 74° East  Level FlightAware Approximate
Sun 09:58:00 PM 50.5498 -42.6901 74° East  Level FlightAware Approximate
Sun 09:59:00 PM 50.5873 -42.4812 74° East  Level FlightAware Approximate
Sun 10:00:00 PM 50.6244 -42.2718 74° East  Level FlightAware Approximate
Sun 10:01:00 PM 50.6612 -42.0622 74° East  Level FlightAware Approximate
Sun 10:02:00 PM 50.6976 -41.8522 75° East  Level FlightAware Approximate
Sun 10:03:00 PM 50.7336 -41.6419 75° East  Level FlightAware Approximate
Sun 10:04:00 PM 50.7692 -41.4313 75° East  Level FlightAware Approximate
Sun 10:05:00 PM 50.8045 -41.2203 75° East  Level FlightAware Approximate
Sun 10:06:00 PM 50.8394 -41.0090 75° East  Level FlightAware Approximate
Sun 10:07:00 PM 50.8739 -40.7975 75° East  Level FlightAware Approximate
Sun 10:08:00 PM 50.9080 -40.5856 76° East  Level FlightAware Approximate
Sun 10:09:00 PM 50.9417 -40.3734 76° East  Level FlightAware Approximate
Sun 10:10:00 PM 50.9751 -40.1609 76° East  Level FlightAware Approximate
Sun 10:10:00 PM 51.0000 -40.0000 86° East 514 592 37,000  Level ETMS Enhanced Traffic Management System
Sun 10:10:53 PM 51.0000 -40.0000 86° East 514 592 37,000  Level ETMS Enhanced Traffic Management System
Sun 10:11:00 PM 51.0023 -39.9466 86° East  Level FlightAware Approximate
Sun 10:12:00 PM 51.0113 -39.7278 86° East  Level FlightAware Approximate
Sun 10:13:00 PM 51.0200 -39.5090 86° East  Level FlightAware Approximate
Sun 10:14:00 PM 51.0282 -39.2901 86° East  Level FlightAware Approximate
Sun 10:15:00 PM 51.0360 -39.0711 87° East  Level FlightAware Approximate
Sun 10:16:00 PM 51.0635 -38.1847 88° East 514 592 37,000  Level FlightAware Transoceanic
Sun 10:17:00 PM 51.0695 -37.9575 88° East 514 592 37,000  Level FlightAware Transoceanic
Sun 10:18:00 PM 51.0750 -37.7302 88° East 514 592 37,000  Level FlightAware Transoceanic
Sun 10:19:00 PM 51.0801 -37.5029 88° East 514 592 37,000  Level FlightAware Transoceanic
Sun 10:20:00 PM 51.0847 -37.2755 88° East 514 592 37,000  Level FlightAware Transoceanic
Sun 10:21:00 PM 51.0889 -37.0481 88° East 514 592 37,000  Level FlightAware Transoceanic
Sun 10:22:00 PM 51.0927 -36.8206 89° East 514 592 37,000  Level FlightAware Transoceanic
Sun 10:23:00 PM 51.0960 -36.5931 89° East 514 592 37,000  Level FlightAware Transoceanic
Sun 10:24:00 PM 51.0988 -36.3656 89° East 514 592 37,000  Level FlightAware Transoceanic
Sun 10:25:00 PM 51.1013 -36.1380 89° East 514 592 37,000  Level FlightAware Transoceanic
Sun 10:26:00 PM 51.1033 -35.9104 89° East 514 592 37,000  Level FlightAware Transoceanic
Sun 10:27:00 PM 51.1048 -35.6828 89° East 514 592 37,000  Level FlightAware Transoceanic
Sun 10:28:00 PM 51.1059 -35.4552 90° East 514 592 37,000  Level FlightAware Transoceanic
Sun 10:29:00 PM 51.1066 -35.2276 90° East 514 592 37,000  Level FlightAware Transoceanic
Sun 10:30:00 PM 51.1068 -35.0000 90° East 514 592 37,000  Level FlightAware Transoceanic
Sun 10:31:00 PM 51.1066 -34.7724 90° East 514 592 37,000  Level FlightAware Transoceanic
Sun 10:32:00 PM 51.1059 -34.5448 90° East 514 592 37,000  Level FlightAware Transoceanic
Sun 10:33:00 PM 51.1048 -34.3172 91° East 514 592 37,000  Level FlightAware Transoceanic
Sun 10:34:00 PM 51.1033 -34.0896 91° East 514 592 37,000  Level FlightAware Transoceanic
Sun 10:35:00 PM 51.1013 -33.8620 91° East 514 592 37,000  Level FlightAware Transoceanic
Sun 10:36:00 PM 51.0988 -33.6344 91° East 514 592 37,000  Level FlightAware Transoceanic
Sun 10:37:00 PM 51.0960 -33.4069 91° East 514 592 37,000  Level FlightAware Transoceanic
Sun 10:38:00 PM 51.0927 -33.1794 91° East 514 592 37,000  Level FlightAware Transoceanic
Sun 10:39:00 PM 51.0889 -32.9519 92° East 514 592 37,000  Level FlightAware Transoceanic
Sun 10:40:00 PM 51.0847 -32.7245 92° East 514 592 37,000  Level FlightAware Transoceanic
Sun 10:41:00 PM 51.0801 -32.4971 92° East 514 592 37,000  Level FlightAware Transoceanic
Sun 10:42:00 PM 51.0750 -32.2698 92° East 514 592 37,000  Level FlightAware Transoceanic
Sun 10:43:00 PM 51.0695 -32.0425 92° East 514 592 37,000  Level FlightAware Transoceanic
Sun 10:44:00 PM 51.0635 -31.8153 92° East 514 592 37,000  Level FlightAware Transoceanic
Sun 10:45:00 PM 51.0571 -31.5881 93° East 514 592 37,000  Level FlightAware Transoceanic
Sun 10:46:00 PM 51.0503 -31.3610 93° East 514 592 37,000  Level FlightAware Transoceanic
Sun 10:47:00 PM 51.0430 -31.1340 93° East 514 592 37,000  Level FlightAware Transoceanic
Sun 10:48:00 PM 51.0353 -30.9070 93° East 514 592 37,000  Level FlightAware Transoceanic
Sun 10:49:00 PM 51.0271 -30.6801 93° East 514 592 37,000  Level FlightAware Transoceanic
Sun 10:50:00 PM 51.0185 -30.4533 94° East 514 592 37,000  Level FlightAware Transoceanic
Sun 10:51:00 PM 51.0095 -30.2266 94° East 514 592 37,000 250 Level FlightAware Transoceanic
Sun 10:52:00 PM 51.0003 -30.0079 94° East  Level FlightAware Approximate
Sun 10:53:00 PM 50.9907 -29.7892 94° East  Level FlightAware Approximate
Sun 10:54:00 PM 50.9702 -29.8023 103° East  Level FlightAware Approximate
Sun 10:54:00 PM 51.0000 -30.0000 103° East 494 568 38,000  Level ETMS Enhanced Traffic Management System
Sun 10:55:00 PM 50.9376 -29.5895 104° East  Level FlightAware Approximate
Sun 10:56:00 PM 50.9047 -29.3770 104° East  Level FlightAware Approximate
Sun 10:57:00 PM 50.8714 -29.1648 104° East  Level FlightAware Approximate
Sun 10:58:00 PM 50.8377 -28.9529 104° East  Level FlightAware Approximate
Sun 10:59:00 PM 50.8036 -28.7413 104° East  Level FlightAware Approximate
Sun 11:00:00 PM 50.7332 -28.3123 105° East 494 568 38,000  Level FlightAware Transoceanic
Sun 11:01:00 PM 50.6981 -28.1027 105° East 494 568 38,000  Level FlightAware Transoceanic
Sun 11:02:00 PM 50.6627 -27.8934 105° East 494 568 38,000  Level FlightAware Transoceanic
Sun 11:03:00 PM 50.6269 -27.6844 105° East 494 568 38,000  Level FlightAware Transoceanic
Sun 11:04:00 PM 50.5907 -27.4758 105° East 494 568 38,000  Level FlightAware Transoceanic
Sun 11:05:00 PM 50.5542 -27.2675 106° East 494 568 38,000  Level FlightAware Transoceanic
Sun 11:06:00 PM 50.5173 -27.0595 106° East 494 568 38,000  Level FlightAware Transoceanic
Sun 11:07:00 PM 50.4800 -26.8518 106° East 494 568 38,000  Level FlightAware Transoceanic
Sun 11:08:00 PM 50.4423 -26.6445 106° East 494 568 38,000  Level FlightAware Transoceanic
Sun 11:09:00 PM 50.4043 -26.4375 106° East 494 568 38,000  Level FlightAware Transoceanic
Sun 11:10:00 PM 50.3659 -26.2308 106° East 494 568 38,000  Level FlightAware Transoceanic
Sun 11:11:00 PM 50.3271 -26.0245 106° East 494 568 38,000  Level FlightAware Transoceanic
Sun 11:12:00 PM 50.2880 -25.8185 107° East 494 568 38,000  Level FlightAware Transoceanic
Sun 11:13:00 PM 50.2485 -25.6128 107° East 494 568 38,000  Level FlightAware Transoceanic
Sun 11:14:00 PM 50.2087 -25.4075 107° East 494 568 38,000  Level FlightAware Transoceanic
Sun 11:15:00 PM 50.1685 -25.2025 107° East 494 568 38,000  Level FlightAware Transoceanic
Sun 11:16:00 PM 50.1279 -24.9979 107° East 494 568 38,000  Level FlightAware Transoceanic
Sun 11:17:00 PM 50.0870 -24.7936 107° East 494 568 38,000  Level FlightAware Transoceanic
Sun 11:18:00 PM 50.0457 -24.5897 108° East 494 568 38,000  Level FlightAware Transoceanic
Sun 11:19:00 PM 50.0040 -24.3861 108° East 494 568 38,000  Level FlightAware Transoceanic
Sun 11:20:00 PM 49.9620 -24.1829 108° East 494 568 38,000  Level FlightAware Transoceanic
Sun 11:21:00 PM 49.9197 -23.9800 108° East 494 568 38,000  Level FlightAware Transoceanic
Sun 11:22:00 PM 49.8770 -23.7775 108° East 494 568 38,000  Level FlightAware Transoceanic
Sun 11:23:00 PM 49.8339 -23.5754 108° East 494 568 38,000  Level FlightAware Transoceanic
Sun 11:24:00 PM 49.7905 -23.3736 109° East 494 568 38,000  Level FlightAware Transoceanic
Sun 11:25:00 PM 49.7467 -23.1722 109° East 494 568 38,000  Level FlightAware Transoceanic
Sun 11:26:00 PM 49.7026 -22.9711 109° East 494 568 38,000  Level FlightAware Transoceanic
Sun 11:27:00 PM 49.6582 -22.7704 109° East 494 568 38,000  Level FlightAware Transoceanic
Sun 11:28:00 PM 49.6134 -22.5701 109° East 494 568 38,000  Level FlightAware Transoceanic
Sun 11:29:00 PM 49.5682 -22.3701 109° East 494 568 38,000  Level FlightAware Transoceanic
Sun 11:30:00 PM 49.5228 -22.1705 109° East 494 568 38,000  Level FlightAware Transoceanic
Sun 11:31:00 PM 49.4769 -21.9713 110° East 494 568 38,000  Level FlightAware Transoceanic
Sun 11:32:00 PM 49.4307 -21.7725 110° East 494 568 38,000  Level FlightAware Transoceanic
Sun 11:33:00 PM 49.3842 -21.5740 110° East 494 568 38,000  Level FlightAware Transoceanic
Sun 11:34:00 PM 49.3374 -21.3759 110° East 494 568 38,000  Level FlightAware Transoceanic
Sun 11:35:00 PM 49.2902 -21.1782 110° East 494 568 38,000  Level FlightAware Transoceanic
Sun 11:36:00 PM 49.2426 -20.9809 110° East 494 568 38,000  Level FlightAware Transoceanic
Sun 11:37:00 PM 49.1948 -20.7840 110° East 494 568 38,000  Level FlightAware Transoceanic
Sun 11:38:00 PM 49.1466 -20.5874 111° Southeast 494 568 38,000  Level FlightAware Transoceanic
Sun 11:39:00 PM 49.0981 -20.3912 111° Southeast 494 568 38,000  Level FlightAware Transoceanic
Sun 11:40:00 PM 49.0492 -20.1954 111° Southeast 494 568 38,000  Level FlightAware Transoceanic
Sun 11:41:00 PM 48.9997 -19.9990 111° Southeast  Level FlightAware Approximate
Sun 11:42:00 PM 48.9993 -19.9982 119° Southeast  Level FlightAware Approximate
Sun 11:43:00 PM 48.9325 -19.8144 119° Southeast  Level FlightAware Approximate
Sun 11:44:00 PM 48.8653 -19.6311 119° Southeast  Level FlightAware Approximate
Sun 11:45:00 PM 48.7978 -19.4484 119° Southeast  Level FlightAware Approximate
Sun 11:46:00 PM 48.7301 -19.2661 119° Southeast  Level FlightAware Approximate
Sun 11:47:00 PM 48.6620 -19.0843 119° Southeast  Level FlightAware Approximate
Sun 11:48:00 PM 48.5937 -18.9030 120° Southeast  Level FlightAware Approximate
Sun 11:49:00 PM 48.5251 -18.7221 120° Southeast  Level FlightAware Approximate
Sun 11:50:00 PM 48.4564 -18.5416 120° Southeast  Level FlightAware Approximate
Sun 11:51:00 PM 48.3875 -18.3615 120° Southeast  Level FlightAware Approximate
Sun 11:52:00 PM 48.3183 -18.1820 120° Southeast  Level FlightAware Approximate
Sun 11:53:00 PM 48.2489 -18.0029 120° Southeast  Level FlightAware Approximate
Sun 11:54:00 PM 48.1791 -17.8243 120° Southeast  Level FlightAware Approximate
Sun 11:55:00 PM 48.1086 -17.6466 121° Southeast  Level FlightAware Approximate
Sun 11:56:00 PM 48.0375 -17.4697 121° Southeast  Level FlightAware Approximate
Sun 11:57:00 PM 47.9661 -17.2933 121° Southeast  Level FlightAware Approximate
Sun 11:58:00 PM 47.8945 -17.1174 121° Southeast  Level FlightAware Approximate
Sun 11:59:00 PM 47.8225 -16.9420 121° Southeast  Level FlightAware Approximate
Mon 12:00:00 AM 47.7503 -16.7670 121° Southeast  Level FlightAware Approximate
Mon 12:01:00 AM 47.6779 -16.5926 122° Southeast  Level FlightAware Approximate
Mon 12:02:00 AM 47.6051 -16.4186 122° Southeast  Level FlightAware Approximate
Mon 12:03:00 AM 47.5325 -16.2448 122° Southeast  Level FlightAware Approximate
Mon 12:04:00 AM 47.4597 -16.0713 122° Southeast  Level FlightAware Approximate
Mon 12:05:00 AM 47.3867 -15.8983 122° Southeast  Level FlightAware Approximate
Mon 12:06:00 AM 47.3134 -15.7259 122° Southeast  Level FlightAware Approximate
Mon 12:07:00 AM 47.2399 -15.5538 122° Southeast  Level FlightAware Approximate
Mon 12:08:00 AM 47.1661 -15.3823 122° Southeast  Level FlightAware Approximate
Mon 12:09:00 AM 47.0921 -15.2112 122° Southeast  Level FlightAware Approximate
Mon 12:10:00 AM 47.0178 -15.0406 123° Southeast  Level FlightAware Approximate
Mon 12:11:00 AM 46.9340 -14.8803 129° Southeast  Level FlightAware Approximate
Mon 12:12:00 AM 46.8471 -14.7236 129° Southeast  Level FlightAware Approximate
Mon 12:13:00 AM 46.7599 -14.5673 129° Southeast  Level FlightAware Approximate
Mon 12:14:00 AM 46.6726 -14.4116 129° Southeast  Level FlightAware Approximate
Mon 12:15:00 AM 46.5850 -14.2564 129° Southeast  Level FlightAware Approximate
Mon 12:16:00 AM 46.4973 -14.1016 129° Southeast  Level FlightAware Approximate
Mon 12:17:00 AM 46.4093 -13.9474 130° Southeast  Level FlightAware Approximate
Mon 12:18:00 AM 46.3211 -13.7937 130° Southeast  Level FlightAware Approximate
Mon 12:19:00 AM 46.2328 -13.6404 130° Southeast  Level FlightAware Approximate
Mon 12:20:00 AM 46.1442 -13.4877 130° Southeast  Level FlightAware Approximate
Mon 12:21:00 AM 46.0554 -13.3355 130° Southeast  Level FlightAware Approximate
Mon 12:22:00 AM 45.9664 -13.1837 130° Southeast  Level FlightAware Approximate
Mon 12:23:00 AM 45.8772 -13.0324 130° Southeast  Level FlightAware Approximate
Mon 12:24:00 AM 45.7878 -12.8816 130° Southeast  Level FlightAware Approximate
Mon 12:25:00 AM 45.6983 -12.7313 130° Southeast  Level FlightAware Approximate
Mon 12:26:00 AM 45.6085 -12.5815 131° Southeast  Level FlightAware Approximate
Mon 12:26:30 AM 45.8050 -12.6050 131° Southeast 482 555 38,000  Level FlightAware ADS-B
Mon 12:27:00 AM 45.5185 -12.4321 131° Southeast  Level FlightAware Approximate
Mon 12:27:25 AM 45.7330 -12.4640 126° Southeast 483 556 38,000  Level FlightAware ADS-B
Mon 12:28:10 AM 45.6670 -12.3340 126° Southeast 483 556 38,000  Level FlightAware ADS-B
Mon 12:28:50 AM 45.6150 -12.2330 126° Southeast 483 556 38,000  Level FlightAware ADS-B
Mon 12:29:40 AM 45.5530 -12.1110 126° Southeast 483 556 38,000  Level FlightAware ADS-B
Mon 12:30:45 AM 45.4650 -11.9410 126° Southeast 484 557 38,000  Level FlightAware ADS-B
Mon 12:31:25 AM 45.4140 -11.8430 127° Southeast 483 556 38,000  Level FlightAware ADS-B
Mon 12:32:10 AM 45.3540 -11.7280 127° Southeast 484 557 38,000  Level FlightAware ADS-B
Mon 12:32:50 AM 45.2980 -11.6200 126° Southeast 483 556 38,000  Level FlightAware ADS-B
Mon 12:33:45 AM 45.2300 -11.4910 127° Southeast 483 556 38,000  Level FlightAware ADS-B
Mon 12:34:25 AM 45.1740 -11.3850 127° Southeast 483 556 38,000  Level FlightAware ADS-B
Mon 12:35:10 AM 45.1120 -11.2690 127° Southeast 482 555 38,000  Level FlightAware ADS-B
Mon 12:35:50 AM 45.0710 -11.1910 127° Southeast 481 554 38,000  Level FlightAware ADS-B
Mon 12:36:35 AM 44.9990 -11.0580 127° Southeast 483 556 38,000  Level FlightAware ADS-B
Mon 12:37:15 AM 44.9370 -10.9650 133° Southeast 488 562 38,000  Level FlightAware ADS-B
Mon 12:37:50 AM 44.8790 -10.8890 137° Southeast 489 563 38,000  Level FlightAware ADS-B
Mon 12:38:40 AM 44.7910 -10.7770 138° Southeast 489 563 38,000  Level FlightAware ADS-B
Mon 12:39:20 AM 44.7300 -10.6970 137° Southeast 488 562 38,000  Level FlightAware ADS-B
Mon 12:40:05 AM 44.6550 -10.6020 138° Southeast 488 562 38,000  Level FlightAware ADS-B
Mon 12:40:45 AM 44.5860 -10.5120 137° Southeast 487 560 38,000  Level FlightAware ADS-B
Mon 12:42:35 AM 44.4050 -10.2820 138° Southeast 485 558 38,000  Level FlightAware ADS-B
Mon 12:43:20 AM 44.3310 -10.1880 138° Southeast 485 558 38,000  Level FlightAware ADS-B
Mon 12:44:55 AM 44.1710 -9.9870 126° Southeast 486 559 38,000  Level FlightAware ADS-B
Mon 12:45:00 AM 44.1960 -9.9281 126° Southeast  Level Estimated
Mon 12:45:40 AM 44.0960 -9.8930 138° Southeast 486 559 38,000  Level FlightAware ADS-B
Mon 12:46:20 AM 44.0260 -9.8050 138° Southeast 486 559 38,000  Level FlightAware ADS-B
Mon 12:47:05 AM 43.9580 -9.7210 138° Southeast 487 560 38,000  Level FlightAware ADS-B
Mon 12:47:45 AM 43.8900 -9.6370 138° Southeast 487 560 38,000  Level FlightAware ADS-B
Mon 12:48:25 AM 43.8190 -9.5490 138° Southeast 487 560 38,000  Level FlightAware ADS-B
Mon 12:49:05 AM 43.7520 -9.4660 138° Southeast 487 560 38,000  Level FlightAware ADS-B
Mon 12:50:20 AM 43.6370 -9.3260 139° Southeast 486 559 38,000  Level FlightAware ADS-B
Mon 12:51:00 AM 43.5580 -9.2290 138° Southeast 486 559 38,000  Level FlightAware ADS-B
Mon 12:52:40 AM 43.3950 -9.0310 139° Southeast 486 559 38,000  Level FlightAware ADS-B
Mon 12:53:20 AM 43.3260 -8.9490 139° Southeast 486 559 38,000  Level FlightAware ADS-B
Mon 12:54:05 AM 43.2520 -8.8590 138° Southeast 486 559 38,000  Level FlightAware ADS-B
Mon 12:54:40 AM 43.1910 -8.7870 139° Southeast 486 559 38,000  Level FlightAware ADS-B
Mon 12:55:25 AM 43.1110 -8.6900 138° Southeast 486 559 38,000  Level FlightAware ADS-B
Mon 12:56:10 AM 43.0380 -8.6040 139° Southeast 488 562 38,000  Level FlightAware ADS-B
Mon 12:56:50 AM 42.9700 -8.5220 139° Southeast 487 560 38,000  Level FlightAware ADS-B
Mon 12:57:35 AM 42.8970 -8.4180 134° Southeast 469 540 38,000  Level FlightAware ADS-B
Mon 12:58:15 AM 42.8600 -8.3450 125° Southeast 465 535 38,000  Level FlightAware ADS-B
Mon 12:58:55 AM 42.8070 -8.2330 123° Southeast 465 535 38,000  Level FlightAware ADS-B
Mon 12:59:40 AM 42.7520 -8.1180 123° Southeast 465 535 38,000  Level FlightAware ADS-B
Mon 01:00:20 AM 42.7040 -8.0180 123° Southeast 466 536 38,000  Level FlightAware ADS-B
Mon 01:01:05 AM 42.6520 -7.9120 124° Southeast 467 537 38,000  Level FlightAware ADS-B
Mon 01:01:45 AM 42.6030 -7.8120 124° Southeast 467 537 38,000  Level FlightAware ADS-B
Mon 01:02:25 AM 42.5550 -7.7140 124° Southeast 467 537 38,000  Level FlightAware ADS-B
Mon 01:03:10 AM 42.4990 -7.5990 123° Southeast 468 539 38,000  Level FlightAware ADS-B
Mon 01:03:40 AM 42.4630 -7.5260 124° Southeast 468 539 38,000  Level FlightAware ADS-B
Mon 01:04:35 AM 42.4020 -7.4020 124° Southeast 470 541 38,000  Level FlightAware ADS-B
Mon 01:05:05 AM 42.3640 -7.3260 124° Southeast 471 542 38,000  Level FlightAware ADS-B
Mon 01:06:00 AM 42.2980 -7.1930 124° Southeast 470 541 38,000  Level FlightAware ADS-B
Mon 01:06:30 AM 42.2620 -7.1200 124° Southeast 469 540 38,000  Level FlightAware ADS-B
Mon 01:07:20 AM 42.2020 -7.0010 124° Southeast 470 541 38,000  Level FlightAware ADS-B
Mon 01:08:00 AM 42.1530 -6.9040 124° Southeast 470 541 38,000  Level FlightAware ADS-B
Mon 01:08:45 AM 42.1000 -6.7990 124° Southeast 468 539 38,000  Level FlightAware ADS-B
Mon 01:09:25 AM 42.0480 -6.6960 124° Southeast 466 536 38,000  Level FlightAware ADS-B
Mon 01:10:10 AM 41.9990 -6.5980 124° Southeast 465 535 38,000  Level FlightAware ADS-B
Mon 01:10:50 AM 41.9460 -6.4950 125° Southeast 464 534 38,000  Level FlightAware ADS-B
Mon 01:11:30 AM 41.8980 -6.4000 124° Southeast 463 533 38,000 -1,252 Level FlightAware ADS-B
Mon 01:14:00 AM 41.7119 -6.0106 125° Southeast  Level FlightAware Approximate
Mon 01:15:00 AM 41.6324 -5.8596 125° Southeast  Level FlightAware Approximate
Mon 01:16:00 AM 41.5584 -5.7043 118° Southeast  Level FlightAware Approximate
Mon 01:17:00 AM 41.4779 -5.5556 124° Southeast  Level FlightAware Approximate
Mon 01:18:00 AM 41.4014 -5.4024 124° Southeast  Level FlightAware Approximate
Mon 01:19:00 AM 41.3258 -5.2487 122° Southeast  Level FlightAware Approximate
Mon 01:20:00 AM 41.2523 -5.0934 122° Southeast  Level FlightAware Approximate
Mon 01:21:00 AM 41.1782 -4.9393 123° Southeast  Level FlightAware Approximate
Mon 01:22:00 AM 41.1024 -4.7870 123° Southeast  Level FlightAware Approximate
Mon 01:23:00 AM 41.0264 -4.6349 123° Southeast  Level FlightAware Approximate
Mon 01:24:00 AM 40.9502 -4.4832 124° Southeast  Level FlightAware Approximate
Mon 01:25:00 AM 40.8716 -4.3339 126° Southeast  Level FlightAware Approximate
Mon 01:26:00 AM 40.7926 -4.1851 123° Southeast  Level FlightAware Approximate
Mon 01:27:00 AM 40.7169 -4.0336 123° Southeast  Level FlightAware Approximate
Mon 01:28:00 AM 40.6376 -3.8854 126° Southeast  Level FlightAware Approximate
Mon 01:29:00 AM 40.5656 -3.7316 128° Southeast  Level FlightAware Approximate
Mon 01:30:00 AM 40.4845 -3.5857 123° Southeast  Level FlightAware Approximate
Mon 01:31:00 AM 40.4936 -3.5668 123° Southeast  Level Estimated
Mon 01:32:00 AM 40.4936 -3.5668 123° Southeast  Level Estimated
Mon 01:33:00 AM 40.4936 -3.5668 123° Southeast  Level Estimated
Mon 01:33:45 AM 40.2440 -3.9150 123° Southeast 257 296 9,300  Level FlightAware ADS-B
Mon 01:34:10 AM 40.2400 -3.8780 98° East 253 291 8,600 -1,855 Descending FlightAware ADS-B
Mon 01:34:40 AM 40.2350 -3.8330 98° East 251 289 7,600 -1,867 Descending FlightAware ADS-B
Mon 01:34:55 AM 40.2320 -3.8090 99° East 249 287 7,200 -1,650 Descending FlightAware ADS-B
Mon 01:35:20 AM 40.2270 -3.7730 100° East 243 280 6,500 -1,418 Descending FlightAware ADS-B
Mon 01:35:50 AM 40.2220 -3.7300 99° East 239 275 5,900 -1,100 Descending FlightAware ADS-B
Mon 01:36:20 AM 40.2170 -3.6870 99° East 231 266 5,400 -900 Descending FlightAware ADS-B
Mon 01:36:30 AM 40.2150 -3.6740 101° East 230 265 5,300 -750 Descending FlightAware ADS-B
Mon 01:37:00 AM 40.2110 -3.6330 97° East 232 267 4,900 -533 Descending FlightAware ADS-B
Mon 01:37:15 AM 40.2120 -3.6110 87° East 232 267 4,900  Level FlightAware ADS-B
Mon 01:37:40 AM 40.2170 -3.5780 79° East 234 269 4,900  Level FlightAware ADS-B
Mon 01:37:55 AM 40.2210 -3.5570 76° East 232 267 4,900  Level FlightAware ADS-B
Mon 01:38:25 AM 40.2270 -3.5150 79° East 234 269 4,900  Level FlightAware ADS-B
Mon 01:38:50 AM 40.2330 -3.4810 77° East 233 268 4,900  Level FlightAware ADS-B
Mon 01:39:20 AM 40.2390 -3.4410 79° East 235 270 4,900  Level FlightAware ADS-B
Mon 01:39:50 AM 40.2470 -3.4000 76° East 229 264 4,900  Level FlightAware ADS-B
Mon 01:39:55 AM 40.2510 -3.3920 57° Northeast 226 260 4,900  Level FlightAware ADS-B
Mon 01:40:15 AM 40.2700 -3.3840 18° North 218 251 4,900  Level FlightAware ADS-B
Mon 01:40:30 AM 40.2820 -3.3930 330° Northwest 207 238 4,900  Level FlightAware ADS-B
Mon 01:40:45 AM 40.2890 -3.4110 297° West 196 226 4,900  Level FlightAware ADS-B
Mon 01:41:10 AM 40.3030 -3.4310 313° West 191 220 4,900  Level FlightAware ADS-B
Mon 01:41:40 AM 40.3230 -3.4520 321° Northwest 193 222 4,900 -218 Level FlightAware ADS-B
Mon 01:42:05 AM 40.3410 -3.4700 323° Northwest 192 221 4,700 -750 Descending FlightAware ADS-B
Mon 01:42:20 AM 40.3510 -3.4810 320° Northwest 181 208 4,400 -933 Descending FlightAware ADS-B
Mon 01:42:50 AM 40.3700 -3.5000 323° Northwest 164 189 4,000 -900 Descending FlightAware ADS-B
Mon 01:43:20 AM 40.3870 -3.5180 321° Northwest 143 165 3,500 -873 Descending FlightAware ADS-B
Mon 01:43:45 AM 40.4010 -3.5320 323° Northwest 142 163 3,200 -750 Descending FlightAware ADS-B
Mon 01:44:00 AM 40.4080 -3.5380 327° Northwest 142 163 3,000 -750 Descending FlightAware ADS-B
Mon 01:44:25 AM 40.4210 -3.5520 321° Northwest 142 163 2,700 -764 Descending FlightAware ADS-B
Mon 01:44:55 AM 40.4370 -3.5680 323° Northwest 137 158 2,300 -800 Descending FlightAware ADS-B
Mon 01:45:25 AM 40.4520 -3.5830 323° Northwest 135 155 1,900 -800 Descending FlightAware ADS-B

Login

Don't have an account? Register now (free) for customized features, flight alerts, and more!